Time;durP1;ratioP1;P1;durP2;ratioP2;P2;SDS_P1;SDS_P2;PMS_P1;PMS_P2;Temp;Humidity;BMP_temperature;BMP_pressure;BME280_temperature;BME280_humidity;BME280_pressure;Samples;Min_cycle;Max_cycle;Signal;HPM_P1;HPM_P2
2021/04/03 00:01:00;;;;;;;;;66.33;50.00;;;;;13.37;40.13;98440.84;5615215;28;3964786;-59
2021/04/03 00:04:07;;;;;;;;;65.50;50.63;;;;;13.37;40.36;98424.59;5632501;28;7343865;-59
2021/04/03 00:07:13;;;;;;;;;64.00;50.00;;;;;13.41;39.84;98418.41;5606101;28;6593876;-60
2021/04/03 00:10:26;;;;;;;;;66.13;50.00;;;;;13.40;40.08;98413.25;5616227;28;7345961;-60
2021/04/03 00:13:33;;;;;;;;;65.00;50.00;;;;;13.43;39.72;98420.88;5628983;28;6560504;-60
2021/04/03 00:16:39;;;;;;;;;64.00;48.00;;;;;13.45;39.81;98416.84;5612240;28;6573102;-59
2021/04/03 00:19:45;;;;;;;;;62.14;48.29;;;;;13.41;39.56;98420.31;5627079;28;5795001;-59
2021/04/03 00:22:48;;;;;;;;;65.00;49.00;;;;;13.36;39.68;98429.19;5618353;28;4636654;-60
2021/04/03 00:25:58;;;;;;;;;65.08;50.00;;;;;13.21;39.55;98409.19;5631301;28;6588712;-59
2021/04/03 00:29:06;;;;;;;;;63.20;48.20;;;;;13.27;39.84;98419.03;5631218;28;6560860;-60
2021/04/03 00:32:12;;;;;;;;;66.00;50.00;;;;;13.20;40.03;98404.84;5622323;28;6604265;-60
2021/04/03 00:35:22;;;;;;;;;64.75;49.00;;;;;12.98;39.95;98356.91;5635482;28;6591923;-60
2021/04/03 00:38:30;;;;;;;;;64.38;50.00;;;;;13.21;40.30;98399.19;5644513;28;7340059;-59
2021/04/03 00:41:35;;;;;;;;;63.29;48.57;;;;;13.12;40.53;98395.28;5606535;28;6558471;-59
2021/04/03 00:44:42;;;;;;;;;62.14;48.14;;;;;13.07;40.36;98394.38;5611904;28;6564730;-60
2021/04/03 00:47:52;;;;;;;;;64.57;50.00;;;;;12.99;40.38;98380.22;5644188;28;6579304;-60
2021/04/03 00:51:02;;;;;;;;;63.63;50.00;;;;;12.82;40.79;98379.41;5632518;28;6569938;-60
2021/04/03 00:54:10;;;;;;;;;63.86;47.00;;;;;12.80;40.54;98380.75;5633984;28;6575170;-60
2021/04/03 00:57:21;;;;;;;;;60.57;46.86;;;;;12.81;40.45;98376.94;5624925;28;6555344;-59
2021/04/03 01:00:30;;;;;;;;;61.29;47.43;;;;;12.69;40.57;98368.94;5637177;28;6566080;-59
2021/04/03 01:03:39;;;;;;;;;61.50;47.13;;;;;12.69;40.75;98374.34;5624282;28;7308462;-59
2021/04/03 01:06:46;;;;;;;;;61.29;48.00;;;;;12.65;40.62;98359.69;5639493;28;6558457;-59
2021/04/03 01:09:56;;;;;;;;;61.29;46.57;;;;;12.62;40.80;98359.34;5639453;28;6553293;-59
2021/04/03 01:13:20;;;;;;;;;60.70;48.00;;;;;12.52;40.97;98354.59;5600196;28;6569207;-59
2021/04/03 01:16:38;;;;;;;;;62.00;48.29;;;;;12.61;40.74;98357.72;5609641;28;6582383;-59
2021/04/03 01:20:07;;;;;;;;;58.29;46.00;;;;;12.64;40.73;98349.13;5619896;28;5808610;-59
2021/04/03 01:23:54;;;;;;;;;59.86;47.14;;;;;12.55;40.71;98341.44;5619656;28;5809575;-59
2021/04/03 01:27:13;;;;;;;;;61.71;46.71;;;;;12.68;40.73;98353.78;5635321;28;5779410;-59
2021/04/03 01:30:27;;;;;;;;;61.50;47.17;;;;;12.67;40.71;98357.53;5629727;28;6551144;-59
2021/04/03 01:33:44;;;;;;;;;57.17;45.67;;;;;12.42;40.87;98324.72;5649453;28;5794926;-59
2021/04/03 01:36:50;;;;;;;;;59.25;46.00;;;;;12.57;40.75;98349.28;5620944;28;7265817;-59
2021/04/03 01:40:00;;;;;;;;;58.38;45.50;;;;;12.55;41.19;98354.94;5602590;28;6525191;-59
2021/04/03 01:43:14;;;;;;;;;60.00;46.14;;;;;12.45;41.26;98354.78;5647738;28;5821029;-59
2021/04/03 01:46:24;;;;;;;;;60.67;45.83;;;;;12.38;41.35;98361.41;5620458;28;5775191;-59
2021/04/03 01:49:36;;;;;;;;;58.86;46.00;;;;;12.33;41.64;98369.44;5642044;28;6543874;-59
2021/04/03 01:52:43;;;;;;;;;60.71;47.86;;;;;12.27;41.78;98359.59;5632211;28;6555363;-59
2021/04/03 01:55:53;;;;;;;;;58.29;46.00;;;;;12.23;42.05;98361.97;5612667;28;5796404;-59
2021/04/03 01:58:59;;;;;;;;;57.00;46.00;;;;;12.25;41.76;98367.16;5596191;28;4481469;-59
2021/04/03 02:02:09;;;;;;;;;61.33;46.17;;;;;12.28;41.99;98358.53;5607613;28;5799057;-59
2021/04/03 02:05:18;;;;;;;;;61.29;47.86;;;;;12.08;41.93;98338.22;5623043;28;5828441;-59
2021/04/03 02:08:33;;;;;;;;;58.71;46.43;;;;;12.19;42.08;98352.72;5597787;28;6556448;-59
2021/04/03 02:12:13;;;;;;;;;60.29;46.00;;;;;12.26;42.22;98360.69;5586608;28;6558528;-59
2021/04/03 02:15:28;;;;;;;;;58.86;46.00;;;;;12.26;42.20;98353.41;5618703;28;5808597;-59
2021/04/03 02:18:40;;;;;;;;;62.45;47.91;;;;;12.02;42.43;98339.19;5636818;28;6566818;-59
2021/04/03 02:21:49;;;;;;;;;60.63;48.00;;;;;11.95;42.52;98340.44;5612182;28;7294906;-59
2021/04/03 02:24:59;;;;;;;;;61.75;46.75;;;;;12.04;42.64;98356.00;5634249;28;6570006;-59
2021/04/03 02:28:08;;;;;;;;;62.60;47.80;;;;;11.93;42.96;98354.16;5634974;28;6562606;-59
2021/04/03 02:31:29;;;;;;;;;60.43;46.43;;;;;11.98;42.82;98366.94;5634086;28;5803311;-59
2021/04/03 02:34:37;;;;;;;;;63.29;49.00;;;;;11.95;43.04;98357.47;5635395;28;6579326;-59
2021/04/03 02:38:06;;;;;;;;;62.00;48.00;;;;;11.90;43.20;98354.66;5628570;28;6581401;-59
2021/04/03 02:41:29;;;;;;;;;63.43;49.00;;;;;11.86;43.09;98340.00;5627441;28;6569958;-58
2021/04/03 02:44:42;;;;;;;;;61.71;47.29;;;;;11.75;43.08;98311.19;5628551;28;6548047;-59
2021/04/03 02:47:49;;;;;;;;;62.33;48.00;;;;;11.76;43.46;98323.63;5631994;28;3936626;-59
2021/04/03 02:50:58;;;;;;;;;63.33;48.00;;;;;11.71;43.53;98327.03;5609999;28;3952827;-59
2021/04/03 02:54:08;;;;;;;;;64.14;49.00;;;;;11.71;43.64;98334.31;5651606;28;6574053;-59
2021/04/03 02:57:20;;;;;;;;;64.50;48.38;;;;;11.64;43.65;98334.44;5650936;28;6581474;-59
2021/04/03 03:00:29;;;;;;;;;61.71;47.43;;;;;11.58;44.05;98331.91;5645147;28;6544900;-59
2021/04/03 03:03:39;;;;;;;;;62.71;48.00;;;;;11.60;44.01;98341.38;5635615;28;5819004;-59
2021/04/03 03:06:49;;;;;;;;;64.38;48.00;;;;;11.63;43.84;98337.41;5619908;28;7310531;-59
2021/04/03 03:09:59;;;;;;;;;60.86;46.57;;;;;11.63;43.84;98334.69;5635896;28;5825255;-59
2021/04/03 03:13:10;;;;;;;;;63.00;46.86;;;;;11.58;43.78;98324.59;5628481;28;6566781;-59
2021/04/03 03:16:21;;;;;;;;;60.14;46.00;;;;;11.65;43.70;98338.78;5644401;28;6533485;-59
2021/04/03 03:19:25;;;;;;;;;60.00;45.67;;;;;11.66;43.67;98334.22;5599508;28;4440913;-59
2021/04/03 03:22:31;;;;;;;;;60.00;46.00;;;;;11.50;43.45;98307.97;5593792;28;6544931;-59
2021/04/03 03:25:38;;;;;;;;;59.00;46.57;;;;;11.71;43.48;98342.41;5637722;28;6540784;-59
2021/04/03 03:28:45;;;;;;;;;57.00;44.00;;;;;11.56;43.66;98336.72;5611621;28;4127802;-59
2021/04/03 03:31:49;;;;;;;;;57.00;44.00;;;;;11.63;43.52;98330.09;5623868;28;4376255;-59
2021/04/03 03:35:04;;;;;;;;;60.67;45.17;;;;;11.51;43.47;98309.63;5628048;28;5784541;-59
2021/04/03 03:38:14;;;;;;;;;61.25;44.75;;;;;11.66;43.50;98326.94;5619526;28;6592870;-59
2021/04/03 03:41:21;;;;;;;;;59.33;45.33;;;;;11.65;43.52;98319.06;5604558;28;4167978;-59
2021/04/03 03:44:27;;;;;;;;;54.63;43.25;;;;;11.66;43.42;98316.13;5596015;28;6537005;-59
2021/04/03 03:47:32;;;;;;;;;58.00;45.33;;;;;11.59;43.58;98317.31;5613993;28;3956514;-60
2021/04/03 03:50:46;;;;;;;;;60.00;45.57;;;;;11.56;43.62;98307.84;5629790;28;6567855;-59
2021/04/03 03:54:00;;;;;;;;;60.17;46.33;;;;;11.51;44.01;98323.13;5618638;28;6554234;-59
2021/04/03 03:57:08;;;;;;;;;57.29;45.71;;;;;11.59;43.81;98320.03;5617472;28;5815880;-59
2021/04/03 04:00:20;;;;;;;;;55.00;43.43;;;;;11.63;43.67;98316.59;5633079;28;5790786;-59
2021/04/03 04:03:35;;;;;;;;;60.00;47.00;;;;;11.77;43.74;98314.47;5607255;28;4499223;-59
2021/04/03 04:06:49;;;;;;;;;59.67;46.00;;;;;11.86;43.32;98306.78;5625656;28;5784532;-59
2021/04/03 04:09:55;;;;;;;;;61.00;46.29;;;;;11.81;43.48;98307.50;5585769;28;6548151;-59
2021/04/03 04:13:04;;;;;;;;;60.00;46.00;;;;;11.76;43.50;98304.72;5641811;28;6567141;-59
2021/04/03 04:16:12;;;;;;;;;57.63;44.75;;;;;11.76;43.42;98307.41;5594251;28;6541912;-59
2021/04/03 04:19:22;;;;;;;;;59.57;45.29;;;;;11.80;43.41;98310.44;5612078;28;6560563;-59
2021/04/03 04:22:32;;;;;;;;;60.33;44.50;;;;;11.63;43.49;98278.78;5620574;28;5794922;-59
2021/04/03 04:25:41;;;;;;;;;57.00;44.75;;;;;11.78;43.50;98301.78;5618625;28;6554376;-59
2021/04/03 04:28:53;;;;;;;;;56.71;43.71;;;;;11.79;43.59;98301.53;5625861;28;5812098;-59
2021/04/03 04:32:08;;;;;;;;;57.71;45.00;;;;;11.69;43.90;98294.03;5626648;28;5815915;-59
2021/04/03 04:35:21;;;;;;;;;58.00;44.00;;;;;11.83;43.87;98301.84;5631475;28;5791840;-59
2021/04/03 04:38:32;;;;;;;;;57.63;44.13;;;;;11.85;43.79;98303.25;5599696;28;7299124;-59
2021/04/03 04:41:42;;;;;;;;;56.71;45.00;;;;;11.87;43.70;98305.72;5621226;28;5814773;-59
2021/04/03 04:44:46;;;;;;;;;56.00;43.00;;;;;11.79;44.00;98300.69;5641394;28;4499097;-59
2021/04/03 04:47:54;;;;;;;;;59.67;45.00;;;;;11.81;44.09;98307.50;5654008;28;5778263;-59
2021/04/03 04:51:01;;;;;;;;;56.50;45.20;;;;;11.79;44.23;98300.69;5636667;28;6552148;-59
2021/04/03 04:54:12;;;;;;;;;56.00;44.00;;;;;11.79;44.16;98311.50;5629903;28;6524100;-59
2021/04/03 04:57:27;;;;;;;;;57.60;44.00;;;;;11.82;44.10;98308.34;5621561;28;6568837;-59
2021/04/03 05:00:40;;;;;;;;;58.00;44.00;;;;;11.94;43.86;98317.16;5620851;28;5815887;-59
2021/04/03 05:03:54;;;;;;;;;54.67;43.00;;;;;11.86;44.18;98317.59;5648123;28;5783874;-59
2021/04/03 05:07:04;;;;;;;;;56.14;44.29;;;;;11.90;44.10;98321.44;5646845;28;5822497;-59
2021/04/03 05:10:11;;;;;;;;;55.00;44.00;;;;;11.97;44.13;98327.50;5639441;28;6534499;-59
2021/04/03 05:13:16;;;;;;;;;56.50;45.00;;;;;12.01;44.04;98337.56;5601352;28;5803291;-59
2021/04/03 05:16:24;;;;;;;;;58.00;45.57;;;;;12.07;43.95;98346.59;5632672;28;5818987;-59
2021/04/03 05:19:28;;;;;;;;;57.00;45.29;;;;;12.06;44.05;98343.06;5605972;28;5804736;-59
2021/04/03 05:22:37;;;;;;;;;52.00;42.71;;;;;12.12;43.91;98352.06;5646234;28;6532717;-59
2021/04/03 05:25:42;;;;;;;;;54.00;43.83;;;;;12.12;44.11;98352.88;5622949;28;5788750;-59
2021/04/03 05:28:46;;;;;;;;;53.00;43.00;;;;;12.08;44.25;98359.00;5626794;28;3945059;-59
2021/04/03 05:31:55;;;;;;;;;55.00;44.00;;;;;12.07;44.29;98360.91;5637499;28;6530376;-59
2021/04/03 05:35:05;;;;;;;;;56.43;45.00;;;;;12.16;44.27;98380.25;5645526;28;6571008;-59
2021/04/03 05:38:12;;;;;;;;;53.00;43.00;;;;;12.06;44.63;98382.78;5641322;28;6550139;-59
2021/04/03 05:41:20;;;;;;;;;54.67;42.00;;;;;12.05;44.62;98389.22;5635036;28;5774453;-59
2021/04/03 05:44:30;;;;;;;;;56.20;44.00;;;;;12.01;44.72;98388.91;5639294;28;6522990;-59
2021/04/03 05:47:35;;;;;;;;;58.33;45.00;;;;;11.97;44.90;98389.63;5631636;28;4187725;-59
2021/04/03 05:50:39;;;;;;;;;56.67;43.00;;;;;11.97;44.97;98392.34;5606343;28;3943962;-59
2021/04/03 05:53:48;;;;;;;;;55.00;42.86;;;;;12.01;44.99;98394.31;5647102;28;5811639;-59
2021/04/03 05:56:56;;;;;;;;;51.50;41.20;;;;;12.07;45.05;98403.34;5638508;28;5765768;-59
2021/04/03 06:00:06;;;;;;;;;52.00;41.13;;;;;12.15;44.69;98406.44;5629483;28;6566829;-59
2021/04/03 06:03:20;;;;;;;;;49.00;41.00;;;;;12.14;45.03;98399.41;5646612;28;5777293;-59
2021/04/03 06:06:27;;;;;;;;;50.88;40.00;;;;;11.97;44.55;98363.41;5640302;28;7294924;-59
2021/04/03 06:09:36;;;;;;;;;50.57;39.29;;;;;12.23;44.73;98402.53;5640236;28;6569950;-59
2021/04/03 06:12:47;;;;;;;;;50.71;41.57;;;;;12.48;44.37;98405.66;5642729;28;6556416;-59
2021/04/03 06:15:56;;;;;;;;;51.50;41.00;;;;;12.52;44.23;98408.69;5638694;28;6560497;-59
2021/04/03 06:19:13;;;;;;;;;45.71;37.71;;;;;12.56;44.00;98402.53;5640810;28;6554313;-59
2021/04/03 06:22:22;;;;;;;;;48.09;38.18;;;;;12.70;43.75;98413.03;5634491;28;6579355;-59
2021/04/03 06:25:27;;;;;;;;;47.38;38.13;;;;;12.78;43.33;98423.44;5613089;28;6557462;-59
2021/04/03 06:28:33;;;;;;;;;49.00;39.00;;;;;12.79;43.48;98420.50;5616965;28;7317178;-59
2021/04/03 06:31:41;;;;;;;;;49.29;39.00;;;;;12.81;43.31;98431.03;5603600;28;6566872;-59
2021/04/03 06:34:51;;;;;;;;;48.45;38.00;;;;;12.75;43.52;98432.06;5637019;28;6560517;-59
2021/04/03 06:38:17;;;;;;;;;47.50;36.50;;;;;12.55;43.15;98383.88;5639558;28;6562604;-59
2021/04/03 06:41:27;;;;;;;;;48.00;38.80;;;;;12.85;43.07;98435.72;5628694;28;6564682;-59
2021/04/03 06:44:31;;;;;;;;;47.63;35.00;;;;;12.85;42.83;98434.91;5595537;28;6541779;-59
2021/04/03 06:47:40;;;;;;;;;43.00;35.00;;;;;12.99;42.66;98438.91;5644163;28;5798074;-59
2021/04/03 06:50:51;;;;;;;;;48.70;38.90;;;;;13.06;42.53;98425.19;5628432;28;6567808;-59
2021/04/03 06:54:00;;;;;;;;;48.00;37.80;;;;;13.14;42.70;98432.94;5619100;28;6553200;-59
2021/04/03 06:57:10;;;;;;;;;48.00;38.00;;;;;13.21;42.96;98434.38;5605218;28;4634587;-59
2021/04/03 07:00:14;;;;;;;;;47.00;39.00;;;;;13.27;42.86;98440.69;5614104;28;3939896;-59
2021/04/03 07:03:23;;;;;;;;;44.71;37.00;;;;;13.35;42.84;98434.84;5644891;28;6528270;-59
2021/04/03 07:06:33;;;;;;;;;45.00;37.43;;;;;13.25;43.21;98446.34;5635690;28;5790824;-59
2021/04/03 07:09:42;;;;;;;;;47.00;38.08;;;;;13.26;43.53;98449.88;5610760;28;6579401;-58
2021/04/03 07:12:49;;;;;;;;;46.00;37.29;;;;;13.28;43.52;98451.28;5613731;28;6545295;-59
2021/04/03 07:16:01;;;;;;;;;47.71;39.43;;;;;13.24;43.90;98446.63;5646237;28;6554666;-59
2021/04/03 07:19:12;;;;;;;;;44.64;36.82;;;;;13.24;43.47;98457.44;5632469;28;6557412;-59
2021/04/03 07:22:22;;;;;;;;;44.71;37.00;;;;;13.19;43.94;98460.06;5635475;28;6570991;-59
2021/04/03 07:25:29;;;;;;;;;48.50;38.25;;;;;13.23;44.34;98469.34;5607258;28;7319231;-59
2021/04/03 07:28:37;;;;;;;;;48.71;38.86;;;;;13.36;44.28;98467.09;5631957;28;6595457;-59
2021/04/03 07:31:46;;;;;;;;;45.00;36.29;;;;;13.30;43.70;98478.09;5629333;28;6561632;-59
2021/04/03 07:34:53;;;;;;;;;41.25;34.00;;;;;13.20;43.43;98484.16;5633795;28;6576342;-59
2021/04/03 07:38:07;;;;;;;;;42.29;35.57;;;;;13.14;43.80;98476.25;5637123;28;5799906;-59
2021/04/03 07:41:17;;;;;;;;;43.86;35.57;;;;;13.08;44.39;98482.59;5620953;28;5802339;-59
2021/04/03 07:44:33;;;;;;;;;32.00;29.29;;;;;12.94;43.86;98466.72;5644550;28;6541838;-59
2021/04/03 07:47:47;;;;;;;;;34.56;30.11;;;;;13.06;43.92;98493.66;5623334;28;6529302;-59
2021/04/03 07:50:54;;;;;;;;;28.63;27.00;;;;;12.92;44.36;98501.31;5624865;28;6538702;-59
2021/04/03 07:54:29;;;;;;;;;32.43;27.00;;;;;12.94;44.92;98509.19;5644475;28;6540826;-59
2021/04/03 07:57:36;;;;;;;;;26.00;23.00;;;;;12.97;45.05;98509.50;5642534;28;5791903;-59
2021/04/03 08:00:47;;;;;;;;;25.80;23.30;;;;;13.04;44.45;98525.59;5621632;28;6510507;-59
2021/04/03 08:03:57;;;;;;;;;22.86;21.14;;;;;13.02;44.81;98515.00;5644945;28;6510542;-59
2021/04/03 08:07:02;;;;;;;;;24.67;21.67;;;;;13.15;44.89;98513.03;5630144;28;4458477;-59
2021/04/03 08:10:18;;;;;;;;;26.29;22.43;;;;;13.23;45.87;98513.47;5630295;28;5812684;-59
2021/04/03 08:13:26;;;;;;;;;26.50;21.67;;;;;13.31;45.61;98520.34;5648718;28;5786612;-59
2021/04/03 08:16:33;;;;;;;;;25.29;22.29;;;;;13.47;45.11;98524.91;5637723;28;6529327;-59
2021/04/03 08:19:39;;;;;;;;;24.71;21.57;;;;;13.62;44.02;98519.72;5634241;28;6504304;-59
2021/04/03 08:22:59;;;;;;;;;24.00;22.00;;;;;13.67;43.90;98524.38;5637302;28;5775223;-59
2021/04/03 08:26:04;;;;;;;;;21.00;18.00;;;;;13.79;43.54;98528.59;5631873;28;3919564;-59
2021/04/03 08:29:21;;;;;;;;;18.00;17.00;;;;;13.77;43.88;98527.22;5622987;28;6491844;-59
2021/04/03 08:32:29;;;;;;;;;20.14;16.57;;;;;13.73;43.33;98532.31;5644534;28;5760644;-59
2021/04/03 08:35:37;;;;;;;;;21.71;18.57;;;;;13.84;43.21;98533.28;5623227;28;5763063;-59
2021/04/03 08:38:45;;;;;;;;;21.00;20.71;;;;;13.74;43.49;98533.13;5636251;28;6516870;-59
2021/04/03 08:41:55;;;;;;;;;18.29;17.71;;;;;13.78;42.84;98539.72;5632853;28;5742991;-59
2021/04/03 08:45:03;;;;;;;;;21.50;19.75;;;;;13.79;43.49;98533.19;5621500;28;7256412;-59
2021/04/03 08:48:11;;;;;;;;;23.29;19.14;;;;;13.89;42.99;98536.88;5622817;28;6517880;-59
2021/04/03 08:51:14;;;;;;;;;17.00;15.00;;;;;13.98;42.65;98539.13;5628798;28;3224223;-59
2021/04/03 08:54:20;;;;;;;;;16.00;15.67;;;;;13.95;42.22;98504.41;5640987;28;5740102;-59
2021/04/03 08:57:27;;;;;;;;;19.00;16.00;;;;;13.96;42.02;98504.16;5638398;28;5747015;-59
2021/04/03 09:00:35;;;;;;;;;18.29;18.14;;;;;14.20;41.63;98529.94;5630908;28;5756474;-59
2021/04/03 09:03:42;;;;;;;;;17.89;15.67;;;;;14.28;41.73;98536.78;5639100;28;5733474;-59
2021/04/03 09:06:50;;;;;;;;;20.00;17.00;;;;;14.19;42.59;98519.34;5649851;28;5741175;-59
2021/04/03 09:10:05;;;;;;;;;17.67;15.00;;;;;14.48;40.51;98538.94;5628514;28;3902312;-58
2021/04/03 09:13:14;;;;;;;;;19.22;18.44;;;;;14.67;40.68;98538.31;5637710;28;5726206;-58
2021/04/03 09:16:18;;;;;;;;;17.00;16.00;;;;;14.76;40.26;98541.38;5639180;28;4564874;-58
2021/04/03 09:19:28;;;;;;;;;15.33;14.00;;;;;14.80;39.12;98536.28;5646750;28;5698075;-59
2021/04/03 09:22:37;;;;;;;;;15.67;15.17;;;;;14.79;38.44;98531.94;5638993;28;5719961;-59
2021/04/03 09:25:44;;;;;;;;;17.00;14.00;;;;;14.79;37.94;98534.66;5623622;28;4991929;-59
2021/04/03 09:28:47;;;;;;;;;14.00;14.00;;;;;14.65;38.25;98545.91;5624311;28;4396091;-59
2021/04/03 09:32:04;;;;;;;;;15.00;14.00;;;;;14.67;38.41;98537.50;5642589;28;5694958;-59
2021/04/03 09:35:14;;;;;;;;;17.33;15.33;;;;;14.49;38.80;98505.31;5646388;28;5720308;-59
2021/04/03 09:38:30;;;;;;;;;17.67;15.67;;;;;14.54;38.10;98549.59;5635104;28;5762695;-59
2021/04/03 09:41:48;;;;;;;;;19.00;17.00;;;;;14.53;38.11;98539.81;5639186;28;5738805;-59
2021/04/03 09:44:53;;;;;;;;;18.00;15.00;;;;;14.61;38.69;98552.13;5636261;28;4124215;-59
2021/04/03 09:47:58;;;;;;;;;17.00;15.17;;;;;14.59;38.03;98555.06;5638998;28;5723110;-58
2021/04/03 09:51:06;;;;;;;;;18.33;17.50;;;;;14.52;38.01;98557.16;5640455;28;5754306;-58
2021/04/03 09:54:12;;;;;;;;;16.00;15.00;;;;;14.52;38.14;98556.34;5638261;28;5741871;-59
2021/04/03 09:57:20;;;;;;;;;20.00;18.83;;;;;14.39;38.38;98552.13;5646866;28;5715775;-58
2021/04/03 10:00:27;;;;;;;;;21.00;20.71;;;;;14.48;38.11;98561.47;5622175;28;6510557;-59
2021/04/03 10:03:32;;;;;;;;;19.50;18.00;;;;;14.49;38.19;98567.72;5640609;28;5740812;-58
2021/04/03 10:06:41;;;;;;;;;20.00;18.00;;;;;14.51;38.34;98569.09;5631999;28;5739744;-59
2021/04/03 10:09:48;;;;;;;;;18.00;17.00;;;;;14.55;38.12;98566.69;5626286;28;5748045;-58
2021/04/03 10:12:55;;;;;;;;;22.00;19.00;;;;;14.45;38.32;98561.16;5636354;28;6512635;-58
2021/04/03 10:15:58;;;;;;;;;25.00;22.00;;;;;14.44;38.41;98559.50;5626403;28;4543887;-58
2021/04/03 10:19:03;;;;;;;;;21.00;19.33;;;;;14.55;38.92;98562.09;5636739;28;5762631;-58
2021/04/03 10:22:09;;;;;;;;;19.67;17.67;;;;;14.88;38.78;98560.22;5631613;28;5738724;-59
2021/04/03 10:25:13;;;;;;;;;19.80;18.80;;;;;14.89;37.62;98545.59;5625096;28;4455384;-59
2021/04/03 10:28:20;;;;;;;;;21.14;20.71;;;;;15.06;37.80;98560.66;5636797;28;6510585;-59
2021/04/03 10:31:25;;;;;;;;;20.67;18.00;;;;;15.18;36.65;98572.19;5624200;28;5746012;-59
2021/04/03 10:34:32;;;;;;;;;21.00;19.00;;;;;15.29;36.89;98567.66;5637896;28;5752282;-59
2021/04/03 10:37:35;;;;;;;;;19.00;17.00;;;;;15.31;37.41;98568.22;5627470;28;4567351;-59
2021/04/03 10:40:39;;;;;;;;;19.20;17.60;;;;;15.44;36.44;98569.69;5617433;28;4373202;-59
2021/04/03 10:43:48;;;;;;;;;22.29;19.29;;;;;15.43;35.70;98562.59;5650250;28;6483512;-59
2021/04/03 10:46:54;;;;;;;;;20.71;19.71;;;;;15.48;35.71;98568.06;5631056;28;5775248;-59
2021/04/03 10:50:01;;;;;;;;;18.33;17.33;;;;;15.60;35.68;98572.25;5638442;28;5741835;-58
2021/04/03 10:53:07;;;;;;;;;19.57;19.00;;;;;15.57;35.96;98553.78;5637313;28;5754846;-59
2021/04/03 10:56:13;;;;;;;;;19.00;17.00;;;;;15.71;36.08;98562.28;5638024;28;5749145;-58
2021/04/03 10:59:20;;;;;;;;;19.14;17.86;;;;;16.07;35.25;98565.19;5632443;28;5762822;-58
2021/04/03 11:02:27;;;;;;;;;20.00;19.50;;;;;16.27;34.70;98557.91;5647448;28;5743946;-59
2021/04/03 11:05:34;;;;;;;;;19.89;18.00;;;;;16.42;34.24;98549.81;5637165;28;5747018;-59
2021/04/03 11:08:39;;;;;;;;;21.00;19.00;;;;;16.36;33.64;98555.53;5637027;28;5750215;-59
2021/04/03 11:11:46;;;;;;;;;20.00;17.00;;;;;16.39;33.38;98554.97;5617564;28;6465800;-59
2021/04/03 11:14:51;;;;;;;;;19.00;17.00;;;;;16.42;33.57;98554.44;5632054;28;4577262;-59
2021/04/03 11:17:57;;;;;;;;;16.71;16.00;;;;;16.90;33.49;98550.50;5634856;28;6457462;-58
2021/04/03 11:21:01;;;;;;;;;19.67;18.00;;;;;17.20;33.65;98558.66;5624207;28;4568930;-59
2021/04/03 11:24:05;;;;;;;;;19.00;18.00;;;;;17.22;33.60;98564.69;5632215;28;4111710;-59
2021/04/03 11:27:13;;;;;;;;;19.00;18.00;;;;;17.13;33.93;98563.59;5641766;28;5744316;-58
2021/04/03 11:30:27;;;;;;;;;19.83;18.83;;;;;16.80;34.91;98570.38;5628710;28;5739763;-59
2021/04/03 11:33:32;;;;;;;;;21.71;18.71;;;;;16.37;35.65;98585.16;5632119;28;6504364;-59
2021/04/03 11:36:37;;;;;;;;;19.00;18.00;;;;;16.12;36.97;98600.56;5633943;28;6479328;-59
2021/04/03 11:39:45;;;;;;;;;22.00;20.71;;;;;15.72;37.14;98601.97;5625753;28;5769024;-59
2021/04/03 11:42:53;;;;;;;;;16.33;15.83;;;;;15.32;38.28;98609.78;5633548;28;5737676;-59
2021/04/03 11:45:58;;;;;;;;;12.00;12.00;;;;;14.84;38.76;98613.41;5630505;28;4966855;-59
2021/04/03 11:49:04;;;;;;;;;12.67;12.17;;;;;14.62;39.59;98619.66;5639199;28;4929459;-59
2021/04/03 11:52:11;;;;;;;;;12.00;12.00;;;;;14.24;40.16;98619.72;5636118;28;5706493;-58
2021/04/03 11:55:17;;;;;;;;;14.00;12.00;;;;;14.05;40.59;98631.94;5639778;28;5691853;-59
2021/04/03 11:58:23;;;;;;;;;13.00;12.00;;;;;13.66;42.12;98631.09;5642970;28;4964912;-59
2021/04/03 12:01:30;;;;;;;;;9.33;9.33;;;;;13.34;42.71;98633.56;5632641;28;5621022;-59
2021/04/03 12:04:37;;;;;;;;;11.00;11.00;;;;;13.25;43.76;98624.19;5661986;28;4971080;-59
2021/04/03 12:07:41;;;;;;;;;9.00;9.00;;;;;13.30;43.20;98629.69;5638318;28;4515301;-58
2021/04/03 12:10:47;;;;;;;;;6.20;6.00;;;;;13.36;42.78;98634.97;5658958;28;4859663;-58
2021/04/03 12:13:50;;;;;;;;;5.80;5.80;;;;;13.40;41.90;98632.56;5624641;28;4857886;-58
2021/04/03 12:16:55;;;;;;;;;5.00;5.00;;;;;13.53;42.03;98644.97;5643864;28;4829348;-59
2021/04/03 12:19:57;;;;;;;;;3.00;3.00;;;;;13.47;41.40;98632.41;5627317;28;4866176;-59
2021/04/03 12:23:01;;;;;;;;;7.00;6.00;;;;;13.62;42.40;98643.50;5628750;28;4848141;-58
2021/04/03 12:26:04;;;;;;;;;3.00;3.00;;;;;13.80;41.53;98643.22;5635109;28;4854780;-59
2021/04/03 12:29:08;;;;;;;;;4.00;4.00;;;;;13.89;40.98;98641.72;5629750;28;4836678;-59
2021/04/03 12:32:12;;;;;;;;;5.00;5.00;;;;;13.98;39.23;98645.66;5615752;28;4141994;-60
2021/04/03 12:35:16;;;;;;;;;2.00;2.00;;;;;14.07;39.59;98656.91;5629640;28;4860659;-59
2021/04/03 12:38:19;;;;;;;;;3.83;3.83;;;;;14.04;39.03;98663.63;5647070;28;4118001;-59
2021/04/03 12:41:23;;;;;;;;;5.40;5.00;;;;;14.14;38.92;98654.81;5628495;28;4132568;-58
2021/04/03 12:44:25;;;;;;;;;5.00;4.00;;;;;14.14;38.71;98661.06;5642842;28;3486700;-59
2021/04/03 12:47:29;;;;;;;;;5.60;5.60;;;;;14.13;38.83;98656.72;5621040;28;4863772;-59
2021/04/03 12:50:32;;;;;;;;;6.60;6.40;;;;;14.21;38.85;98663.63;5622103;28;4865208;-59
2021/04/03 12:53:39;;;;;;;;;5.78;4.89;;;;;14.24;38.30;98660.38;5668561;28;4418995;-59
2021/04/03 12:56:45;;;;;;;;;4.00;4.00;;;;;14.33;38.86;98659.69;5668274;28;3791925;-58
2021/04/03 12:59:48;;;;;;;;;5.50;5.00;;;;;14.47;37.51;98668.31;5634543;28;4864819;-59
2021/04/03 13:02:54;;;;;;;;;7.20;7.00;;;;;14.68;37.14;98666.69;5644241;28;4867920;-58
2021/04/03 13:05:57;;;;;;;;;5.00;4.60;;;;;14.78;36.64;98668.69;5624529;28;4148541;-59
2021/04/03 13:09:00;;;;;;;;;7.60;7.60;;;;;14.79;36.81;98652.16;5632481;28;4880790;-59
2021/04/03 13:12:07;;;;;;;;;8.44;7.22;;;;;14.87;36.53;98640.00;5658107;28;4863716;-59
2021/04/03 13:15:11;;;;;;;;;7.00;6.60;;;;;15.03;35.57;98653.50;5640216;28;4876244;-59
2021/04/03 13:18:14;;;;;;;;;7.00;5.60;;;;;15.17;35.60;98660.16;5639604;28;4865792;-59
2021/04/03 13:21:17;;;;;;;;;5.00;5.00;;;;;15.34;35.14;98661.94;5629250;28;4840886;-59
2021/04/03 13:24:20;;;;;;;;;6.20;6.00;;;;;15.65;34.45;98663.88;5639437;28;4865832;-58
2021/04/03 13:27:25;;;;;;;;;9.00;9.00;;;;;15.70;33.65;98639.44;5651328;28;4847095;-59
2021/04/03 13:30:32;;;;;;;;;8.44;7.22;;;;;15.99;33.82;98658.94;5659317;28;4863677;-59
2021/04/03 13:33:36;;;;;;;;;9.00;8.40;;;;;16.25;33.43;98666.19;5619417;28;4857466;-59
2021/04/03 13:36:39;;;;;;;;;6.60;6.60;;;;;16.25;32.82;98640.88;5643446;28;4859586;-59
2021/04/03 13:39:42;;;;;;;;;8.00;7.40;;;;;16.51;32.48;98661.69;5633221;28;4148168;-58
2021/04/03 13:42:46;;;;;;;;;8.67;8.17;;;;;16.67;31.39;98662.59;5635351;28;4861662;-59
2021/04/03 13:45:50;;;;;;;;;8.40;7.40;;;;;16.71;31.23;98658.28;5647689;28;4850231;-59
2021/04/03 13:48:58;;;;;;;;;10.22;9.78;;;;;16.82;31.10;98660.75;5646303;28;5666813;-59
2021/04/03 13:52:01;;;;;;;;;9.00;8.40;;;;;16.83;31.00;98670.56;5632353;28;4861685;-59
2021/04/03 13:55:06;;;;;;;;;13.00;10.60;;;;;16.71;30.96;98672.66;5639919;28;4948145;-59
2021/04/03 13:58:08;;;;;;;;;12.00;10.00;;;;;16.71;30.90;98672.66;5629344;28;4381460;-59
2021/04/03 14:01:14;;;;;;;;;11.40;11.00;;;;;16.57;30.77;98671.50;5631851;28;4930410;-59
2021/04/03 14:04:21;;;;;;;;;13.00;11.17;;;;;16.36;30.89;98680.66;5638426;28;5683531;-59
2021/04/03 14:07:27;;;;;;;;;14.00;12.00;;;;;16.28;31.76;98678.41;5638419;28;5681815;-59
2021/04/03 14:10:34;;;;;;;;;11.00;10.00;;;;;16.07;31.93;98639.44;5635067;28;4945399;-58